Gilkey, North Carolina
Current Conditions -  °F | °C
As of 8:15 AM on Thursday 23 Oct 2014 (Local Time) from KFQD Reporting Station
Clear Clear  
Wind Chill: 38°   Ceiling: Unl
Heat Index: 38°   Visibility: 10mi
Dew Point: 36°   Wind: 3mph
Humidity: 93%   Direction: 310°NW
Pressure: 30.11"   Gusts: NA
Location:  35.3722°N, 82.0134°W
Report Text: KFQD 231215Z AUTO 31003KT 10SM CLR 03/02 A3011 RMK AO2 T00310021
Loading
Personal Weather Stations






























Interactive Weather Map
Tropical Storm Tracking
New forecast layout! Learn more

10-Day Weather Forecast

Advertisements
Track Severe Weather on mobile